Time;durP1;ratioP1;P1;durP2;ratioP2;P2;SDS_P1;SDS_P2;PMS_P1;PMS_P2;Temp;Humidity;BMP_temperature;BMP_pressure;BME280_temperature;BME280_humidity;BME280_pressure;Samples;Min_cycle;Max_cycle;Signal;HPM_P1;HPM_P2
2022/09/20 00:00:10;;;;;;;13.60;3.03;;;;;;;;;;5115282;28;20027;-85
2022/09/20 00:02:36;;;;;;;8.88;2.25;;;;;;;;;;5114976;28;20384;-85
2022/09/20 00:05:03;;;;;;;10.52;2.22;;;;;;;;;;5096548;28;20122;-86
2022/09/20 00:07:29;;;;;;;7.38;2.20;;;;;;;;;;5114894;28;20031;-86
2022/09/20 00:09:56;;;;;;;10.55;2.30;;;;;;;;;;5095605;28;20050;-86
2022/09/20 00:12:22;;;;;;;8.70;2.38;;;;;;;;;;5096384;28;20068;-85
2022/09/20 00:14:48;;;;;;;8.77;2.28;;;;;;;;;;5095914;28;20085;-85
2022/09/20 00:17:14;;;;;;;11.25;2.58;;;;;;;;;;5096387;28;20454;-85
2022/09/20 00:19:40;;;;;;;8.23;2.63;;;;;;;;;;5115008;28;20032;-85
2022/09/20 00:22:06;;;;;;;5.60;2.20;;;;;;;;;;5096310;28;20034;-85
2022/09/20 00:24:35;;;;;;;7.43;2.40;;;;;;;;;;5096321;28;20024;-85
2022/09/20 00:27:01;;;;;;;10.30;2.30;;;;;;;;;;5096235;28;20431;-85
2022/09/20 00:29:27;;;;;;;6.43;2.35;;;;;;;;;;5114516;28;20027;-86
2022/09/20 00:31:53;;;;;;;6.60;2.10;;;;;;;;;;5114661;28;20088;-85
2022/09/20 00:37:04;;;;;;;5.95;2.40;;;;;;;;;;5114532;28;20035;-85
2022/09/20 00:39:30;;;;;;;11.13;2.63;;;;;;;;;;5096225;28;20023;-85
2022/09/20 00:41:56;;;;;;;12.18;2.63;;;;;;;;;;5114531;28;20030;-86
2022/09/20 00:44:41;;;;;;;8.77;2.30;;;;;;;;;;5095989;28;20028;-85
2022/09/20 00:47:12;;;;;;;10.23;2.53;;;;;;;;;;5114450;28;20028;-86
2022/09/20 00:49:38;;;;;;;9.20;2.47;;;;;;;;;;5095835;28;20053;-85
2022/09/20 00:52:04;;;;;;;10.98;2.47;;;;;;;;;;5095653;28;20027;-86
2022/09/20 00:54:31;;;;;;;4.07;2.00;;;;;;;;;;5114025;28;20031;-86
2022/09/20 00:56:57;;;;;;;10.90;2.70;;;;;;;;;;5114455;28;20019;-85
2022/09/20 00:59:34;;;;;;;11.77;2.50;;;;;;;;;;5113966;28;20026;-86
2022/09/20 01:02:07;;;;;;;6.32;2.60;;;;;;;;;;5114124;28;20034;-85
2022/09/20 01:04:34;;;;;;;7.10;2.45;;;;;;;;;;5095541;28;20030;-85
2022/09/20 01:07:02;;;;;;;5.30;2.28;;;;;;;;;;5095344;28;20051;-85
2022/09/20 01:09:28;;;;;;;7.25;2.40;;;;;;;;;;5095360;28;20114;-85
2022/09/20 01:11:55;;;;;;;13.45;2.67;;;;;;;;;;5095238;28;20016;-86
2022/09/20 01:14:22;;;;;;;8.63;2.05;;;;;;;;;;5095233;28;20047;-86
2022/09/20 01:16:48;;;;;;;6.40;2.17;;;;;;;;;;5113523;28;20071;-85
2022/09/20 01:19:19;;;;;;;6.47;2.17;;;;;;;;;;5113809;28;20024;-85
2022/09/20 01:21:46;;;;;;;7.10;2.10;;;;;;;;;;5074788;28;20020;-86
2022/09/20 01:24:17;;;;;;;6.72;2.65;;;;;;;;;;5093550;28;20388;-86
2022/09/20 01:26:52;;;;;;;20.30;3.22;;;;;;;;;;5074757;28;20028;-86
2022/09/20 01:29:18;;;;;;;14.45;2.72;;;;;;;;;;5074726;28;20466;-85
2022/09/20 01:31:45;;;;;;;17.48;2.88;;;;;;;;;;5093203;28;20020;-86
2022/09/20 01:34:13;;;;;;;4.60;2.40;;;;;;;;;;5092952;28;20023;-86
2022/09/20 01:36:45;;;;;;;7.63;2.22;;;;;;;;;;5092779;28;20024;-86
2022/09/20 01:39:11;;;;;;;12.35;2.70;;;;;;;;;;5092785;28;20062;-85
2022/09/20 01:41:49;;;;;;;7.70;2.72;;;;;;;;;;5092965;28;20032;-85
2022/09/20 01:44:35;;;;;;;11.88;2.42;;;;;;;;;;5074486;28;20027;-86
2022/09/20 01:47:21;;;;;;;12.20;2.67;;;;;;;;;;5074280;28;20021;-85
2022/09/20 01:49:50;;;;;;;5.20;2.10;;;;;;;;;;5050502;28;20040;-86
2022/09/20 01:52:22;;;;;;;8.95;2.53;;;;;;;;;;5092818;28;20024;-85
2022/09/20 01:55:07;;;;;;;8.57;2.75;;;;;;;;;;5092774;28;20022;-85
2022/09/20 01:57:51;;;;;;;9.30;2.63;;;;;;;;;;5074206;28;20020;-85
2022/09/20 02:00:17;;;;;;;9.02;2.50;;;;;;;;;;5092679;28;20426;-86
2022/09/20 02:02:53;;;;;;;8.07;2.50;;;;;;;;;;5086515;28;20548;-86
2022/09/20 02:05:28;;;;;;;11.05;2.65;;;;;;;;;;5094827;28;20030;-85
2022/09/20 02:08:08;;;;;;;4.20;2.30;;;;;;;;;;5112982;28;20019;-85
2022/09/20 02:10:41;;;;;;;7.60;2.40;;;;;;;;;;5091331;28;20036;-85
2022/09/20 02:13:14;;;;;;;6.07;3.10;;;;;;;;;;5109155;28;20496;-86
2022/09/20 02:15:43;;;;;;;7.45;2.33;;;;;;;;;;5094412;28;20120;-86
2022/09/20 02:18:21;;;;;;;4.93;2.35;;;;;;;;;;5112899;28;20023;-85
2022/09/20 02:20:54;;;;;;;6.50;2.60;;;;;;;;;;5094607;28;20042;-85
2022/09/20 02:23:59;;;;;;;12.43;2.90;;;;;;;;;;5112775;28;20074;-86
2022/09/20 02:26:33;;;;;;;10.93;2.15;;;;;;;;;;5012442;28;20039;-85
2022/09/20 02:29:11;;;;;;;8.40;2.50;;;;;;;;;;5013547;28;20033;-85
2022/09/20 02:31:37;;;;;;;7.20;2.70;;;;;;;;;;5073576;28;20074;-85
2022/09/20 02:34:10;;;;;;;5.20;1.92;;;;;;;;;;5098554;28;20028;-86
2022/09/20 02:36:40;;;;;;;5.72;2.03;;;;;;;;;;5116991;28;20015;-85
2022/09/20 02:39:09;;;;;;;8.13;1.98;;;;;;;;;;5117151;28;20430;-86
2022/09/20 02:41:54;;;;;;;7.60;2.03;;;;;;;;;;5116832;28;20016;-85
2022/09/20 02:44:38;;;;;;;11.13;2.05;;;;;;;;;;5116722;28;20042;-85
2022/09/20 02:47:07;;;;;;;8.32;1.92;;;;;;;;;;5116474;28;20023;-85
2022/09/20 02:49:33;;;;;;;14.00;2.38;;;;;;;;;;5098040;28;20028;-85
2022/09/20 02:52:05;;;;;;;9.75;2.05;;;;;;;;;;5116583;28;20065;-86
2022/09/20 02:54:45;;;;;;;9.60;2.10;;;;;;;;;;5116478;28;20024;-85
2022/09/20 02:57:15;;;;;;;6.53;1.77;;;;;;;;;;5116546;28;20029;-85
2022/09/20 02:59:49;;;;;;;10.85;2.58;;;;;;;;;;5097867;28;20028;-86
2022/09/20 03:02:24;;;;;;;4.80;1.73;;;;;;;;;;5097994;28;20066;-86
2022/09/20 03:05:19;;;;;;;8.88;1.80;;;;;;;;;;5098069;28;20023;-85
2022/09/20 03:07:52;;;;;;;10.68;2.28;;;;;;;;;;5081149;28;20088;-85
2022/09/20 03:10:27;;;;;;;9.77;3.03;;;;;;;;;;5116257;28;20024;-85
2022/09/20 03:13:06;;;;;;;6.65;1.85;;;;;;;;;;5116332;28;20023;-85
2022/09/20 03:15:41;;;;;;;8.55;1.70;;;;;;;;;;5097332;28;20036;-86
2022/09/20 03:18:11;;;;;;;10.38;2.30;;;;;;;;;;5097286;28;20465;-86
2022/09/20 03:20:55;;;;;;;6.85;1.70;;;;;;;;;;5097758;28;20108;-86
2022/09/20 03:23:24;;;;;;;9.27;2.00;;;;;;;;;;5097500;28;20466;-86
2022/09/20 03:26:02;;;;;;;5.15;2.00;;;;;;;;;;5115868;28;20419;-86
2022/09/20 03:28:47;;;;;;;7.25;1.75;;;;;;;;;;5097526;28;20481;-86
2022/09/20 03:31:22;;;;;;;11.07;2.40;;;;;;;;;;5097352;28;20072;-85
2022/09/20 03:33:51;;;;;;;7.68;1.77;;;;;;;;;;5115814;28;20020;-86
2022/09/20 03:36:17;;;;;;;8.60;2.10;;;;;;;;;;5097112;28;20081;-86
2022/09/20 03:38:49;;;;;;;13.20;2.60;;;;;;;;;;5115834;28;20456;-85
2022/09/20 03:41:15;;;;;;;8.55;2.88;;;;;;;;;;5097260;28;20024;-85
2022/09/20 03:43:44;;;;;;;8.02;2.17;;;;;;;;;;5095827;28;20027;-86
2022/09/20 03:46:25;;;;;;;7.95;2.40;;;;;;;;;;5097720;28;20433;-85
2022/09/20 03:48:54;;;;;;;6.95;2.20;;;;;;;;;;5097205;28;20023;-86
2022/09/20 03:51:22;;;;;;;7.97;2.28;;;;;;;;;;5115357;28;20036;-86
2022/09/20 03:54:03;;;;;;;7.90;2.33;;;;;;;;;;5115465;28;20016;-86
2022/09/20 03:56:29;;;;;;;9.98;2.38;;;;;;;;;;5115394;28;20012;-86
2022/09/20 03:59:14;;;;;;;7.78;2.13;;;;;;;;;;5097028;28;20034;-85
2022/09/20 04:01:49;;;;;;;8.13;2.20;;;;;;;;;;5112143;28;20035;-85
2022/09/20 04:04:33;;;;;;;14.98;4.05;;;;;;;;;;5095091;28;20035;-86
2022/09/20 04:06:59;;;;;;;12.88;2.40;;;;;;;;;;5076358;28;20024;-85
2022/09/20 04:09:46;;;;;;;8.57;2.45;;;;;;;;;;5076464;28;20782;-86
2022/09/20 04:12:12;;;;;;;7.05;2.20;;;;;;;;;;5094959;28;20028;-85
2022/09/20 04:14:53;;;;;;;6.97;2.30;;;;;;;;;;5094643;28;20016;-85
2022/09/20 04:17:19;;;;;;;8.82;2.28;;;;;;;;;;5076288;28;20143;-85
2022/09/20 04:19:46;;;;;;;5.03;2.40;;;;;;;;;;5094688;28;20544;-85
2022/09/20 04:22:13;;;;;;;11.95;2.25;;;;;;;;;;5094735;28;20031;-85
2022/09/20 04:24:45;;;;;;;9.55;2.30;;;;;;;;;;5076549;28;20038;-85
2022/09/20 04:27:27;;;;;;;11.55;2.53;;;;;;;;;;5076227;28;20027;-85
2022/09/20 04:30:14;;;;;;;11.02;2.63;;;;;;;;;;5076257;28;20055;-85
2022/09/20 04:32:46;;;;;;;4.93;1.90;;;;;;;;;;5094593;28;20229;-85
2022/09/20 04:38:04;;;;;;;4.38;2.10;;;;;;;;;;5094320;28;20027;-85
2022/09/20 04:40:50;;;;;;;8.90;2.22;;;;;;;;;;5075999;28;20362;-85
2022/09/20 04:43:31;;;;;;;7.25;2.92;;;;;;;;;;5094111;28;20051;-85
2022/09/20 04:46:15;;;;;;;4.82;2.20;;;;;;;;;;5094400;28;20020;-85
2022/09/20 04:48:55;;;;;;;5.00;2.03;;;;;;;;;;5093899;28;20101;-85
2022/09/20 04:51:33;;;;;;;9.07;2.45;;;;;;;;;;5093929;28;20055;-85
2022/09/20 04:54:20;;;;;;;8.45;3.03;;;;;;;;;;5093787;28;20016;-85
2022/09/20 04:57:05;;;;;;;6.43;2.17;;;;;;;;;;5094143;28;20039;-85
2022/09/20 04:59:52;;;;;;;6.00;2.45;;;;;;;;;;5075556;28;20055;-85
2022/09/20 05:02:22;;;;;;;6.80;3.35;;;;;;;;;;5093702;28;20400;-85
2022/09/20 05:05:03;;;;;;;7.60;2.83;;;;;;;;;;5075443;28;20028;-85
2022/09/20 05:07:45;;;;;;;7.28;2.90;;;;;;;;;;5075276;28;20024;-85
2022/09/20 05:10:32;;;;;;;8.63;3.63;;;;;;;;;;5075395;28;20028;-85
2022/09/20 05:13:03;;;;;;;8.23;4.20;;;;;;;;;;5076972;28;20293;-85
2022/09/20 05:15:48;;;;;;;10.27;3.38;;;;;;;;;;5075112;28;20089;-85
2022/09/20 05:18:37;;;;;;;9.65;4.88;;;;;;;;;;5075298;28;20020;-85
2022/09/20 05:21:09;;;;;;;7.90;3.70;;;;;;;;;;5022961;28;20104;-85
2022/09/20 05:23:54;;;;;;;12.20;3.83;;;;;;;;;;5071761;28;20067;-85
2022/09/20 05:26:29;;;;;;;11.93;4.03;;;;;;;;;;5091316;28;20024;-84
2022/09/20 05:29:01;;;;;;;8.40;3.75;;;;;;;;;;5075424;28;20035;-85
2022/09/20 05:31:30;;;;;;;13.60;4.13;;;;;;;;;;5074856;28;20028;-85
2022/09/20 05:33:59;;;;;;;14.45;3.88;;;;;;;;;;5074834;28;20028;-85
2022/09/20 05:36:38;;;;;;;8.30;3.40;;;;;;;;;;5074847;28;20048;-85
2022/09/20 05:39:39;;;;;;;10.77;3.35;;;;;;;;;;5093096;28;20095;-85
2022/09/20 05:42:14;;;;;;;9.73;3.15;;;;;;;;;;5007380;28;20030;-85
2022/09/20 05:44:59;;;;;;;6.80;3.25;;;;;;;;;;5076987;28;20050;-85
2022/09/20 05:47:46;;;;;;;12.88;3.40;;;;;;;;;;5092929;28;20415;-85
2022/09/20 05:50:32;;;;;;;7.88;3.38;;;;;;;;;;5092895;28;20024;-85
2022/09/20 05:53:02;;;;;;;8.07;2.80;;;;;;;;;;5092763;28;20585;-85
2022/09/20 05:55:45;;;;;;;8.80;2.92;;;;;;;;;;5074578;28;20020;-84
2022/09/20 05:58:11;;;;;;;;;;;;;;;;;;5093401;28;20040;-85
2022/09/20 06:00:44;;;;;;;10.93;2.67;;;;;;;;;;5074477;28;20013;-85
2022/09/20 06:03:15;;;;;;;9.65;2.78;;;;;;;;;;5089956;28;20090;-84
2022/09/20 06:05:54;;;;;;;8.40;2.75;;;;;;;;;;5112743;28;20019;-85
2022/09/20 06:08:32;;;;;;;6.57;2.53;;;;;;;;;;5094380;28;20035;-84
2022/09/20 06:10:58;;;;;;;11.80;3.35;;;;;;;;;;5094759;28;20028;-85
2022/09/20 06:13:39;;;;;;;8.45;3.53;;;;;;;;;;5094458;28;20062;-85
2022/09/20 06:16:06;;;;;;;5.78;2.80;;;;;;;;;;5112792;28;20039;-85
2022/09/20 06:18:36;;;;;;;5.97;2.70;;;;;;;;;;5094539;28;20038;-85
2022/09/20 06:21:17;;;;;;;8.45;2.60;;;;;;;;;;5094485;28;20151;-85
2022/09/20 06:23:43;;;;;;;10.23;3.00;;;;;;;;;;5107848;28;20028;-85
2022/09/20 06:26:17;;;;;;;4.40;2.58;;;;;;;;;;5109460;28;20020;-85
2022/09/20 06:28:48;;;;;;;5.18;2.92;;;;;;;;;;5112681;28;20015;-85
2022/09/20 06:31:17;;;;;;;8.10;3.17;;;;;;;;;;5120084;28;20139;-85
2022/09/20 06:34:09;;;;;;;6.90;2.70;;;;;;;;;;5097880;28;20030;-85
2022/09/20 06:42:13;;;;;;;9.10;3.30;;;;;;;;;;5112931;28;20130;-85
2022/09/20 06:44:40;;;;;;;6.55;3.03;;;;;;;;;;5112795;28;20055;-85
2022/09/20 06:47:07;;;;;;;10.60;4.18;;;;;;;;;;5094341;28;20024;-85
2022/09/20 06:49:34;;;;;;;9.50;4.03;;;;;;;;;;5105506;28;20347;-84
2022/09/20 06:52:01;;;;;;;9.73;4.13;;;;;;;;;;5131442;28;20027;-84
2022/09/20 06:54:28;;;;;;;12.50;4.05;;;;;;;;;;5133361;28;20454;-84
2022/09/20 06:56:54;;;;;;;9.20;4.43;;;;;;;;;;5125690;28;20135;-85
2022/09/20 06:59:20;;;;;;;6.30;3.40;;;;;;;;;;5131396;28;20376;-84
2022/09/20 07:01:46;;;;;;;13.70;3.90;;;;;;;;;;5130448;28;20034;-85
2022/09/20 07:04:12;;;;;;;9.32;4.30;;;;;;;;;;5131259;28;20381;-85
2022/09/20 07:06:39;;;;;;;7.88;3.47;;;;;;;;;;5094095;28;20461;-85
2022/09/20 07:09:06;;;;;;;12.88;3.65;;;;;;;;;;5092388;28;20095;-85
2022/09/20 07:11:33;;;;;;;21.42;5.43;;;;;;;;;;5091952;28;20032;-85
2022/09/20 07:13:59;;;;;;;7.90;3.47;;;;;;;;;;5092021;28;20044;-85
2022/09/20 07:16:26;;;;;;;8.52;3.20;;;;;;;;;;5091909;28;20040;-85
2022/09/20 07:18:52;;;;;;;13.23;3.13;;;;;;;;;;5094726;28;20024;-85
2022/09/20 07:21:19;;;;;;;10.70;3.42;;;;;;;;;;5112966;28;20102;-85
2022/09/20 07:23:47;;;;;;;8.45;2.95;;;;;;;;;;5116108;28;20032;-85
2022/09/20 07:26:17;;;;;;;11.77;3.08;;;;;;;;;;5095530;28;20497;-85
2022/09/20 07:28:43;;;;;;;8.25;2.25;;;;;;;;;;5109339;27;20117;-84
2022/09/20 07:31:09;;;;;;;8.30;2.97;;;;;;;;;;5118075;27;20054;-85
2022/09/20 07:33:35;;;;;;;6.78;2.40;;;;;;;;;;5136495;27;20062;-85
2022/09/20 07:36:01;;;;;;;11.88;2.53;;;;;;;;;;5125738;27;20020;-85
2022/09/20 07:38:27;;;;;;;11.50;2.60;;;;;;;;;;5116025;28;20016;-85
2022/09/20 07:41:01;;;;;;;14.00;3.25;;;;;;;;;;5116115;28;20129;-85
2022/09/20 07:43:27;;;;;;;7.38;2.35;;;;;;;;;;5114308;28;20739;-85
2022/09/20 07:45:54;;;;;;;8.38;2.30;;;;;;;;;;5115616;28;20027;-85
2022/09/20 07:48:24;;;;;;;8.57;2.35;;;;;;;;;;5116011;28;20103;-85
2022/09/20 07:50:52;;;;;;;9.68;2.58;;;;;;;;;;5115632;28;20474;-89
2022/09/20 07:53:18;;;;;;;9.52;2.40;;;;;;;;;;5115389;28;20028;-87
2022/09/20 07:55:44;;;;;;;12.75;1.90;;;;;;;;;;5114161;28;20609;-87
2022/09/20 07:58:10;;;;;;;7.72;2.42;;;;;;;;;;5100541;27;20106;-85
2022/09/20 08:00:36;;;;;;;7.75;1.92;;;;;;;;;;5117461;27;20030;-84
2022/09/20 08:03:04;;;;;;;8.35;1.98;;;;;;;;;;5087999;28;20024;-84
2022/09/20 08:05:30;;;;;;;7.97;1.88;;;;;;;;;;5095108;28;20055;-84
2022/09/20 08:07:58;;;;;;;7.07;1.30;;;;;;;;;;5094967;28;20024;-84
2022/09/20 08:10:25;;;;;;;9.18;1.90;;;;;;;;;;5111542;27;20466;-84
2022/09/20 08:12:51;;;;;;;10.05;1.65;;;;;;;;;;5128305;27;20019;-83
2022/09/20 08:15:17;;;;;;;7.25;1.60;;;;;;;;;;5096560;28;20027;-83
2022/09/20 08:17:46;;;;;;;5.15;1.45;;;;;;;;;;5115418;28;20024;-84
2022/09/20 08:20:12;;;;;;;5.75;1.73;;;;;;;;;;5115261;28;20019;-84
2022/09/20 08:22:41;;;;;;;6.32;1.70;;;;;;;;;;5133354;27;20031;-84
2022/09/20 08:25:09;;;;;;;8.93;2.00;;;;;;;;;;5117246;27;20400;-84
2022/09/20 08:27:36;;;;;;;7.30;2.00;;;;;;;;;;5135845;27;20031;-85
2022/09/20 08:30:02;;;;;;;6.60;1.92;;;;;;;;;;5134615;27;20026;-82
2022/09/20 08:32:28;;;;;;;6.05;1.80;;;;;;;;;;5133679;27;20149;-84
2022/09/20 08:34:54;;;;;;;8.00;2.05;;;;;;;;;;5131675;27;20081;-85
2022/09/20 08:37:20;;;;;;;11.00;1.92;;;;;;;;;;5114750;28;20020;-84
2022/09/20 08:39:46;;;;;;;8.77;2.83;;;;;;;;;;5119641;27;20536;-85
2022/09/20 08:42:12;;;;;;;10.02;3.95;;;;;;;;;;5135388;27;20035;-86
2022/09/20 08:44:45;;;;;;;83.65;36.05;;;;;;;;;;5115807;27;20030;-86
2022/09/20 08:47:17;;;;;;;20.70;9.63;;;;;;;;;;5114516;28;20027;-84
2022/09/20 08:49:43;;;;;;;7.25;2.80;;;;;;;;;;5123826;27;20461;-83
2022/09/20 08:52:15;;;;;;;8.77;3.05;;;;;;;;;;5133009;27;20040;-83
2022/09/20 08:54:42;;;;;;;6.38;1.85;;;;;;;;;;5115014;27;20378;-84
2022/09/20 08:57:15;;;;;;;10.27;2.97;;;;;;;;;;5133591;27;20406;-84
2022/09/20 08:59:41;;;;;;;9.20;1.73;;;;;;;;;;5117705;27;20038;-83
2022/09/20 09:02:15;;;;;;;5.57;1.45;;;;;;;;;;5120156;27;20473;-87
2022/09/20 09:04:43;;;;;;;7.60;1.48;;;;;;;;;;5134837;27;20414;-86
2022/09/20 09:07:12;;;;;;;7.20;1.33;;;;;;;;;;5134916;27;20027;-88
2022/09/20 09:09:40;;;;;;;117.40;9.30;;;;;;;;;;5134540;27;20038;-85
2022/09/20 09:12:06;;;;;;;30.75;3.08;;;;;;;;;;5134675;27;20030;-85
2022/09/20 09:14:47;;;;;;;5.45;1.27;;;;;;;;;;5134615;27;20053;-86
2022/09/20 09:17:14;;;;;;;4.85;1.30;;;;;;;;;;5134461;27;20165;-88
2022/09/20 09:19:48;;;;;;;3.00;0.98;;;;;;;;;;5131140;27;20090;-89
2022/09/20 09:22:22;;;;;;;5.22;0.90;;;;;;;;;;5114053;28;20360;-88
2022/09/20 09:25:07;;;;;;;6.32;1.80;;;;;;;;;;5114032;28;20062;-87
2022/09/20 09:27:34;;;;;;;2.50;0.90;;;;;;;;;;5113688;28;20028;-86
2022/09/20 09:30:00;;;;;;;10.07;3.97;;;;;;;;;;5113536;28;20415;-88
2022/09/20 09:32:28;;;;;;;9.55;5.20;;;;;;;;;;5095652;28;20027;-91
2022/09/20 09:34:54;;;;;;;4.50;1.92;;;;;;;;;;5113816;28;20098;-88
2022/09/20 09:37:30;;;;;;;5.63;1.20;;;;;;;;;;5113743;28;20016;-88
2022/09/20 09:40:15;;;;;;;6.70;1.10;;;;;;;;;;5113608;28;20019;-87
2022/09/20 09:42:51;;;;;;;4.57;1.05;;;;;;;;;;5113611;28;20047;-87
2022/09/20 09:45:37;;;;;;;2.47;1.05;;;;;;;;;;5113684;28;20031;-90
2022/09/20 09:48:17;;;;;;;6.55;0.93;;;;;;;;;;5114259;28;20111;-89
2022/09/20 09:50:43;;;;;;;6.60;1.13;;;;;;;;;;5113545;28;20035;-88
2022/09/20 09:53:14;;;;;;;21.20;2.13;;;;;;;;;;5113224;28;20019;-88
2022/09/20 09:55:40;;;;;;;214.05;12.73;;;;;;;;;;5113241;28;20099;-89
2022/09/20 09:58:11;;;;;;;21.33;2.17;;;;;;;;;;5113216;28;20109;-82
2022/09/20 10:00:41;;;;;;;4.13;1.40;;;;;;;;;;5113481;28;20023;-81
2022/09/20 10:03:07;;;;;;;3.28;1.20;;;;;;;;;;5097634;28;20027;-81
2022/09/20 10:05:48;;;;;;;6.43;1.20;;;;;;;;;;5102979;28;20019;-82
2022/09/20 10:08:20;;;;;;;2.97;1.13;;;;;;;;;;5113164;28;20122;-82
2022/09/20 10:11:07;;;;;;;8.63;1.63;;;;;;;;;;5112295;28;20051;-81
2022/09/20 10:13:36;;;;;;;5.78;1.90;;;;;;;;;;5095889;28;20024;-81
2022/09/20 10:16:16;;;;;;;7.97;1.73;;;;;;;;;;5096971;28;20133;-81
2022/09/20 10:18:42;;;;;;;5.50;1.20;;;;;;;;;;5104572;28;20081;-81
2022/09/20 10:21:11;;;;;;;6.20;1.75;;;;;;;;;;5095443;28;20138;-81
2022/09/20 10:23:39;;;;;;;5.00;1.35;;;;;;;;;;5097918;28;20338;-80
2022/09/20 10:26:23;;;;;;;6.20;1.42;;;;;;;;;;5099004;28;20032;-81
2022/09/20 10:28:56;;;;;;;5.80;1.15;;;;;;;;;;5094256;28;20485;-80
2022/09/20 10:31:40;;;;;;;6.32;1.08;;;;;;;;;;5100371;28;20323;-80
2022/09/20 10:34:19;;;;;;;5.72;1.08;;;;;;;;;;5096351;28;20101;-80
2022/09/20 10:36:45;;;;;;;9.70;1.10;;;;;;;;;;5104608;28;20016;-80
2022/09/20 10:39:26;;;;;;;5.45;0.68;;;;;;;;;;5097429;28;20354;-80
2022/09/20 10:44:59;;;;;;;3.50;0.73;;;;;;;;;;5103205;28;20178;-80
2022/09/20 10:47:30;;;;;;;3.67;0.60;;;;;;;;;;5097421;28;20063;-80
2022/09/20 10:50:05;;;;;;;7.70;0.57;;;;;;;;;;5100956;28;20107;-79
2022/09/20 10:52:34;;;;;;;7.15;1.02;;;;;;;;;;5102911;28;20107;-80
2022/09/20 10:55:07;;;;;;;3.08;0.70;;;;;;;;;;5101492;27;20024;-81
2022/09/20 10:57:37;;;;;;;3.17;0.40;;;;;;;;;;5100495;28;20686;-80
2022/09/20 11:00:04;;;;;;;5.75;0.70;;;;;;;;;;5101185;28;20436;-83
2022/09/20 11:02:39;;;;;;;4.30;0.63;;;;;;;;;;5108601;28;20102;-81
2022/09/20 11:05:19;;;;;;;3.42;0.60;;;;;;;;;;5116578;28;20024;-82
2022/09/20 11:07:48;;;;;;;7.20;1.00;;;;;;;;;;5101106;28;20031;-81
2022/09/20 11:10:19;;;;;;;4.18;0.60;;;;;;;;;;5109583;28;20024;-84
2022/09/20 11:12:51;;;;;;;6.38;0.60;;;;;;;;;;5106844;28;20492;-83
2022/09/20 11:15:21;;;;;;;3.08;0.68;;;;;;;;;;5097590;28;20039;-84
2022/09/20 11:18:01;;;;;;;3.30;0.52;;;;;;;;;;5114322;27;20197;-87
2022/09/20 11:20:28;;;;;;;3.38;0.63;;;;;;;;;;5108201;28;20020;-82
2022/09/20 11:22:58;;;;;;;4.85;0.50;;;;;;;;;;5104732;28;20035;-82
2022/09/20 11:25:38;;;;;;;3.92;0.60;;;;;;;;;;5103708;28;20024;-82
2022/09/20 11:28:17;;;;;;;8.48;0.85;;;;;;;;;;5100926;28;20032;-82
2022/09/20 11:30:54;;;;;;;6.70;1.23;;;;;;;;;;5113383;28;20028;-82
2022/09/20 11:33:20;;;;;;;4.97;0.75;;;;;;;;;;5115930;28;20015;-82
2022/09/20 11:35:51;;;;;;;2.80;0.50;;;;;;;;;;5113070;28;20027;-82
2022/09/20 11:38:23;;;;;;;4.93;0.60;;;;;;;;;;5096237;28;20020;-82
2022/09/20 11:40:59;;;;;;;5.78;0.60;;;;;;;;;;5105562;28;20020;-82
2022/09/20 11:43:27;;;;;;;5.20;0.80;;;;;;;;;;5102967;28;20031;-82
2022/09/20 11:45:56;;;;;;;7.40;0.88;;;;;;;;;;5115913;28;20053;-82
2022/09/20 11:48:28;;;;;;;7.72;1.33;;;;;;;;;;5101807;28;20049;-82
2022/09/20 11:51:03;;;;;;;6.63;0.80;;;;;;;;;;5108447;28;20172;-81
2022/09/20 11:53:49;;;;;;;7.63;1.20;;;;;;;;;;5101250;28;20477;-81
2022/09/20 11:56:23;;;;;;;5.40;0.80;;;;;;;;;;5095412;28;20028;-81
2022/09/20 11:58:51;;;;;;;5.90;0.63;;;;;;;;;;5115477;28;20137;-81
2022/09/20 12:01:28;;;;;;;3.97;0.70;;;;;;;;;;5115350;28;20020;-80
2022/09/20 12:03:56;;;;;;;3.17;0.60;;;;;;;;;;5105728;28;20023;-81
2022/09/20 12:06:28;;;;;;;5.88;0.63;;;;;;;;;;5090891;28;20360;-81
2022/09/20 12:08:57;;;;;;;5.45;0.80;;;;;;;;;;5108635;27;20470;-80
2022/09/20 12:11:28;;;;;;;3.55;0.77;;;;;;;;;;5112808;27;20084;-80
2022/09/20 12:14:03;;;;;;;8.38;0.77;;;;;;;;;;5094721;28;20024;-82
2022/09/20 12:16:37;;;;;;;4.15;0.60;;;;;;;;;;5094508;28;20058;-82
2022/09/20 12:19:06;;;;;;;14.65;0.90;;;;;;;;;;5094701;28;20355;-82
2022/09/20 12:21:52;;;;;;;5.05;0.70;;;;;;;;;;5094985;28;20012;-83
2022/09/20 12:24:20;;;;;;;7.25;0.70;;;;;;;;;;5076458;28;20032;-81
2022/09/20 12:26:47;;;;;;;5.70;0.77;;;;;;;;;;5094834;28;20428;-81
2022/09/20 12:29:30;;;;;;;4.82;0.65;;;;;;;;;;5094554;28;20030;-81
2022/09/20 12:32:04;;;;;;;8.57;1.02;;;;;;;;;;5094178;28;20024;-82
2022/09/20 12:34:35;;;;;;;7.05;0.95;;;;;;;;;;5094473;28;20016;-83
2022/09/20 12:37:02;;;;;;;3.40;0.40;;;;;;;;;;5094446;28;20055;-81
2022/09/20 12:39:31;;;;;;;4.32;0.80;;;;;;;;;;5094440;28;20099;-81
2022/09/20 12:41:58;;;;;;;4.85;0.50;;;;;;;;;;5093998;28;20024;-81
2022/09/20 12:44:24;;;;;;;3.17;0.65;;;;;;;;;;5094000;28;20024;-81
2022/09/20 12:46:56;;;;;;;5.72;0.60;;;;;;;;;;5094284;28;20032;-81
2022/09/20 12:52:49;;;;;;;4.47;0.57;;;;;;;;;;5094480;28;20031;-82
2022/09/20 12:55:35;;;;;;;5.20;1.05;;;;;;;;;;5094039;28;20024;-82
2022/09/20 12:58:13;;;;;;;5.22;0.65;;;;;;;;;;5093929;28;20020;-82
2022/09/20 13:00:43;;;;;;;6.90;0.70;;;;;;;;;;5094181;28;20100;-82
2022/09/20 13:03:12;;;;;;;7.03;0.80;;;;;;;;;;5093819;28;20051;-82
2022/09/20 13:05:40;;;;;;;2.25;0.60;;;;;;;;;;5094112;28;20031;-81
2022/09/20 13:08:29;;;;;;;6.05;0.70;;;;;;;;;;5104557;28;20474;-81
2022/09/20 13:11:02;;;;;;;7.70;0.73;;;;;;;;;;5092437;28;20043;-81
2022/09/20 13:13:30;;;;;;;14.50;1.83;;;;;;;;;;5113705;28;20114;-81
2022/09/20 13:15:58;;;;;;;8.10;1.52;;;;;;;;;;5106478;28;20040;-81
2022/09/20 13:18:26;;;;;;;3.63;0.77;;;;;;;;;;5113192;28;20371;-80
2022/09/20 13:20:52;;;;;;;4.13;1.00;;;;;;;;;;5113987;28;20032;-81
2022/09/20 13:23:21;;;;;;;5.32;1.10;;;;;;;;;;5094648;28;20385;-81
2022/09/20 13:25:48;;;;;;;2.65;0.90;;;;;;;;;;5110771;28;20028;-80
2022/09/20 13:28:20;;;;;;;4.28;1.00;;;;;;;;;;5085185;28;20032;-80
2022/09/20 13:30:46;;;;;;;6.15;0.80;;;;;;;;;;5101620;28;20024;-81
2022/09/20 13:33:16;;;;;;;3.33;0.75;;;;;;;;;;5101362;28;20028;-81
2022/09/20 13:35:47;;;;;;;9.05;0.70;;;;;;;;;;5094046;28;20504;-81
2022/09/20 13:38:14;;;;;;;3.97;0.60;;;;;;;;;;5093917;28;20099;-82
2022/09/20 13:40:41;;;;;;;3.95;0.68;;;;;;;;;;5093683;28;20163;-82
2022/09/20 13:43:23;;;;;;;2.17;0.40;;;;;;;;;;5093834;28;20080;-82
2022/09/20 13:45:54;;;;;;;3.05;0.65;;;;;;;;;;5101553;28;20033;-82
2022/09/20 13:48:23;;;;;;;4.47;0.73;;;;;;;;;;5113829;28;20027;-81
2022/09/20 13:50:49;;;;;;;5.63;0.90;;;;;;;;;;5108944;28;20362;-80
2022/09/20 13:53:17;;;;;;;3.47;0.60;;;;;;;;;;5103722;28;20171;-80
2022/09/20 13:55:44;;;;;;;5.35;0.68;;;;;;;;;;5099375;28;20020;-80
2022/09/20 13:58:19;;;;;;;4.25;0.63;;;;;;;;;;5116215;28;20095;-81
2022/09/20 14:00:46;;;;;;;4.22;0.60;;;;;;;;;;5099988;28;20027;-81
2022/09/20 14:03:16;;;;;;;8.15;0.85;;;;;;;;;;5095861;28;20046;-81
2022/09/20 14:05:46;;;;;;;5.68;0.80;;;;;;;;;;5103042;28;20027;-81
2022/09/20 14:08:22;;;;;;;3.35;0.70;;;;;;;;;;5106407;28;20066;-81
2022/09/20 14:10:49;;;;;;;5.13;0.57;;;;;;;;;;5098140;28;20038;-81
2022/09/20 14:13:16;;;;;;;3.42;0.60;;;;;;;;;;5104511;28;20414;-81
2022/09/20 14:15:45;;;;;;;3.78;0.57;;;;;;;;;;5108234;28;20032;-81
2022/09/20 14:18:15;;;;;;;4.97;0.60;;;;;;;;;;5113612;28;20015;-82
2022/09/20 14:20:42;;;;;;;9.82;0.65;;;;;;;;;;5113902;28;20098;-84
2022/09/20 14:23:20;;;;;;;8.45;1.10;;;;;;;;;;5106418;28;20039;-81
2022/09/20 14:26:05;;;;;;;5.10;0.90;;;;;;;;;;5104336;28;20036;-83
2022/09/20 14:28:31;;;;;;;5.47;0.95;;;;;;;;;;5091595;28;20787;-83
2022/09/20 14:31:04;;;;;;;2.63;0.52;;;;;;;;;;5092568;28;20485;-82
2022/09/20 14:33:31;;;;;;;4.47;0.68;;;;;;;;;;5092777;28;20020;-82
2022/09/20 14:35:58;;;;;;;5.32;0.80;;;;;;;;;;5092485;28;20077;-82
2022/09/20 14:38:25;;;;;;;6.40;0.70;;;;;;;;;;5074039;28;20442;-82
2022/09/20 14:40:52;;;;;;;3.70;0.57;;;;;;;;;;5092324;28;20055;-82
2022/09/20 14:43:25;;;;;;;8.70;0.77;;;;;;;;;;5099733;28;20473;-80
2022/09/20 14:45:51;;;;;;;;;;;;;;;;;;5113383;28;20036;-79
2022/09/20 14:48:17;;;;;;;6.15;0.70;;;;;;;;;;5113091;28;19903;-79
2022/09/20 14:50:44;;;;;;;5.40;0.70;;;;;;;;;;5076211;28;20016;-79
2022/09/20 14:53:10;;;;;;;5.85;0.95;;;;;;;;;;5092106;28;20032;-80
2022/09/20 14:55:37;;;;;;;6.00;0.60;;;;;;;;;;5098801;28;20019;-81
2022/09/20 14:58:10;;;;;;;3.92;0.68;;;;;;;;;;5107258;28;20016;-82
2022/09/20 15:00:49;;;;;;;5.43;1.02;;;;;;;;;;5092471;28;20046;-82
2022/09/20 15:03:16;;;;;;;5.88;0.77;;;;;;;;;;5105264;28;20076;-82
2022/09/20 15:05:50;;;;;;;4.05;0.80;;;;;;;;;;5095109;28;20043;-82
2022/09/20 15:08:18;;;;;;;6.80;0.93;;;;;;;;;;5085720;28;20020;-83
2022/09/20 15:10:45;;;;;;;4.90;0.70;;;;;;;;;;5110353;28;20475;-82
2022/09/20 15:13:12;;;;;;;5.40;0.93;;;;;;;;;;5102969;28;20020;-84
2022/09/20 15:15:38;;;;;;;5.78;1.30;;;;;;;;;;5098406;28;20097;-85
2022/09/20 15:18:11;;;;;;;3.95;0.90;;;;;;;;;;5106175;28;20096;-84
2022/09/20 15:20:37;;;;;;;6.53;1.13;;;;;;;;;;5100570;28;20378;-84
2022/09/20 15:23:03;;;;;;;6.25;0.70;;;;;;;;;;5101471;28;20028;-84
2022/09/20 15:25:29;;;;;;;7.13;1.15;;;;;;;;;;5104934;28;20024;-84